Time;durP1;ratioP1;P1;durP2;ratioP2;P2;SDS_P1;SDS_P2;PMS_P1;PMS_P2;Temp;Humidity;BMP_temperature;BMP_pressure;BME280_temperature;BME280_humidity;BME280_pressure;Samples;Min_cycle;Max_cycle;Signal;HPM_P1;HPM_P2
2022/05/25 00:01:15;;;;;;;4.17;3.10;;;;;;;;;;5058384;28;20430;-84
2022/05/25 00:03:41;;;;;;;3.90;3.03;;;;;;;;;;5025556;28;20406;-86
2022/05/25 00:06:08;;;;;;;4.20;2.43;;;;;;;;;;5024665;28;20419;-86
2022/05/25 00:08:35;;;;;;;5.20;3.20;;;;;;;;;;5043666;28;20406;-86
2022/05/25 00:11:01;;;;;;;4.77;3.20;;;;;;;;;;5025045;28;20426;-86
2022/05/25 00:13:28;;;;;;;2.40;2.13;;;;;;;;;;5041372;28;20410;-86
2022/05/25 00:15:54;;;;;;;4.73;2.70;;;;;;;;;;5024336;28;20450;-86
2022/05/25 00:18:20;;;;;;;3.50;1.90;;;;;;;;;;5024577;28;20414;-86
2022/05/25 00:20:46;;;;;;;2.63;2.00;;;;;;;;;;5041534;28;20437;-86
2022/05/25 00:23:12;;;;;;;2.83;1.80;;;;;;;;;;5041457;28;20464;-86
2022/05/25 00:25:40;;;;;;;2.33;2.00;;;;;;;;;;5041574;28;20405;-85
2022/05/25 00:28:07;;;;;;;3.07;1.60;;;;;;;;;;5041995;28;20493;-85
2022/05/25 00:30:34;;;;;;;1.93;1.70;;;;;;;;;;5005357;28;20625;-85
2022/05/25 00:33:01;;;;;;;3.67;2.30;;;;;;;;;;5031132;28;20433;-85
2022/05/25 00:35:28;;;;;;;3.77;2.27;;;;;;;;;;5026354;28;20447;-85
2022/05/25 00:37:54;;;;;;;2.30;2.10;;;;;;;;;;5024292;28;20439;-85
2022/05/25 00:40:26;;;;;;;3.60;2.37;;;;;;;;;;5024267;28;20478;-86
2022/05/25 00:42:52;;;;;;;2.63;2.40;;;;;;;;;;5004673;28;20493;-86
2022/05/25 00:45:18;;;;;;;2.70;2.50;;;;;;;;;;5022664;28;21071;-86
2022/05/25 00:47:46;;;;;;;3.40;3.00;;;;;;;;;;5004953;28;20411;-84
2022/05/25 00:50:13;;;;;;;4.67;2.73;;;;;;;;;;5024561;28;20419;-85
2022/05/25 00:52:41;;;;;;;3.03;2.73;;;;;;;;;;5024065;28;20426;-85
2022/05/25 00:55:07;;;;;;;4.23;2.57;;;;;;;;;;5023602;28;20406;-85
2022/05/25 00:57:44;;;;;;;3.37;3.00;;;;;;;;;;5041998;28;20403;-85
2022/05/25 01:00:21;;;;;;;3.30;2.70;;;;;;;;;;5023704;28;20411;-85
2022/05/25 01:02:51;;;;;;;3.87;2.63;;;;;;;;;;5021778;28;20457;-84
2022/05/25 01:05:20;;;;;;;2.70;2.40;;;;;;;;;;5006259;28;20399;-83
2022/05/25 01:08:01;;;;;;;3.47;2.80;;;;;;;;;;5028800;28;20498;-85
2022/05/25 01:10:51;;;;;;;4.60;2.73;;;;;;;;;;5024404;28;20406;-85
2022/05/25 01:13:17;;;;;;;11.13;2.90;;;;;;;;;;5042124;28;20398;-83
2022/05/25 01:15:53;;;;;;;5.00;2.90;;;;;;;;;;5041320;28;20446;-87
2022/05/25 01:18:38;;;;;;;3.50;1.97;;;;;;;;;;5042003;28;20422;-86
2022/05/25 01:21:04;;;;;;;3.67;2.43;;;;;;;;;;5024290;28;20401;-83
2022/05/25 01:23:48;;;;;;;4.53;2.03;;;;;;;;;;5041169;28;20395;-85
2022/05/25 01:26:41;;;;;;;2.27;1.90;;;;;;;;;;5023828;28;20414;-84
2022/05/25 01:29:25;;;;;;;3.50;2.07;;;;;;;;;;5040939;28;20422;-85
2022/05/25 01:31:58;;;;;;;2.83;2.30;;;;;;;;;;5040097;28;20430;-84
2022/05/25 01:34:27;;;;;;;3.40;2.40;;;;;;;;;;5040111;28;20961;-87
2022/05/25 01:36:56;;;;;;;2.60;2.30;;;;;;;;;;5022227;28;20530;-85
2022/05/25 01:39:24;;;;;;;4.13;2.07;;;;;;;;;;5032224;28;20423;-85
2022/05/25 01:41:57;;;;;;;3.40;2.30;;;;;;;;;;5014216;28;20525;-84
2022/05/25 01:44:24;;;;;;;3.60;3.20;;;;;;;;;;5018898;28;20779;-85
2022/05/25 01:46:52;;;;;;;3.13;2.53;;;;;;;;;;5019764;28;20411;-84
2022/05/25 01:49:20;;;;;;;3.63;2.40;;;;;;;;;;5040610;28;20402;-86
2022/05/25 01:51:48;;;;;;;3.97;2.87;;;;;;;;;;5021975;28;20517;-85
2022/05/25 01:54:18;;;;;;;3.70;2.70;;;;;;;;;;5040871;28;20402;-85
2022/05/25 01:56:45;;;;;;;2.50;2.30;;;;;;;;;;5039292;28;20446;-85
2022/05/25 01:59:13;;;;;;;5.43;2.63;;;;;;;;;;5022248;28;20406;-85
2022/05/25 02:04:41;;;;;;;6.83;3.30;;;;;;;;;;5040116;28;20406;-86
2022/05/25 02:07:20;;;;;;;5.30;2.93;;;;;;;;;;5022370;28;20419;-85
2022/05/25 02:09:59;;;;;;;4.00;3.60;;;;;;;;;;5021648;28;20475;-85
2022/05/25 02:12:34;;;;;;;6.03;3.67;;;;;;;;;;5021675;28;20821;-85
2022/05/25 02:15:23;;;;;;;9.53;4.03;;;;;;;;;;5038558;28;20444;-86
2022/05/25 02:18:10;;;;;;;7.67;4.47;;;;;;;;;;5035784;28;20419;-82
2022/05/25 02:20:52;;;;;;;4.57;4.17;;;;;;;;;;5019627;28;20394;-84
2022/05/25 02:23:27;;;;;;;5.53;4.10;;;;;;;;;;5036521;28;20403;-83
2022/05/25 02:26:07;;;;;;;6.73;5.40;;;;;;;;;;5019278;28;20393;-85
2022/05/25 02:28:35;;;;;;;7.00;5.77;;;;;;;;;;5019210;28;20414;-84
2022/05/25 02:31:03;;;;;;;6.27;4.97;;;;;;;;;;5037144;28;20398;-87
2022/05/25 02:33:33;;;;;;;5.50;4.63;;;;;;;;;;5020633;28;20414;-85
2022/05/25 02:36:00;;;;;;;5.87;5.27;;;;;;;;;;5038198;28;20530;-83
2022/05/25 02:38:26;;;;;;;7.23;4.90;;;;;;;;;;5021677;28;20413;-85
2022/05/25 02:41:02;;;;;;;5.97;4.80;;;;;;;;;;5039054;28;20426;-85
2022/05/25 02:43:28;;;;;;;7.30;5.00;;;;;;;;;;5039065;28;20941;-86
2022/05/25 02:45:54;;;;;;;5.70;4.87;;;;;;;;;;5039234;28;20460;-86
2022/05/25 02:48:20;;;;;;;6.20;4.73;;;;;;;;;;5041992;28;20933;-86
2022/05/25 02:50:46;;;;;;;5.17;4.67;;;;;;;;;;5042529;28;20413;-84
2022/05/25 02:53:15;;;;;;;6.60;4.80;;;;;;;;;;5024493;28;20501;-86
2022/05/25 02:55:41;;;;;;;8.70;4.87;;;;;;;;;;5024639;28;20464;-86
2022/05/25 02:58:07;;;;;;;5.93;4.80;;;;;;;;;;5042865;28;20434;-86
2022/05/25 03:00:33;;;;;;;6.73;5.30;;;;;;;;;;5042681;28;20453;-86
2022/05/25 03:02:59;;;;;;;5.43;4.83;;;;;;;;;;5042366;28;20426;-85
2022/05/25 03:05:25;;;;;;;5.20;4.70;;;;;;;;;;5024905;28;20448;-84
2022/05/25 03:07:52;;;;;;;9.70;5.77;;;;;;;;;;5025858;28;20486;-86
2022/05/25 03:10:18;;;;;;;5.23;4.53;;;;;;;;;;5042630;28;20471;-86
2022/05/25 03:12:44;;;;;;;4.80;4.37;;;;;;;;;;5046748;23;20547;-86
2022/05/25 03:15:10;;;;;;;6.73;5.27;;;;;;;;;;5044214;28;20410;-86
2022/05/25 03:17:36;;;;;;;6.47;5.10;;;;;;;;;;5009488;28;20427;-86
2022/05/25 03:20:03;;;;;;;5.47;4.97;;;;;;;;;;5025226;28;20407;-86
2022/05/25 03:22:29;;;;;;;9.30;4.73;;;;;;;;;;5014649;28;20428;-86
2022/05/25 03:24:55;;;;;;;5.30;4.80;;;;;;;;;;5006793;28;20419;-87
2022/05/25 03:27:21;;;;;;;8.30;5.33;;;;;;;;;;5009110;28;20416;-87
2022/05/25 03:29:47;;;;;;;7.60;5.13;;;;;;;;;;5009375;28;20508;-86
2022/05/25 03:32:14;;;;;;;7.30;5.60;;;;;;;;;;5011220;28;20496;-87
2022/05/25 03:34:40;;;;;;;5.70;5.10;;;;;;;;;;5014201;28;20495;-85
2022/05/25 03:37:06;;;;;;;6.47;5.37;;;;;;;;;;5033223;28;20530;-86
2022/05/25 03:39:32;;;;;;;6.80;5.60;;;;;;;;;;5030047;28;20404;-86
2022/05/25 03:42:07;;;;;;;11.67;6.10;;;;;;;;;;5007128;28;20488;-86
2022/05/25 03:44:33;;;;;;;6.37;5.40;;;;;;;;;;5007773;28;20411;-85
2022/05/25 03:46:59;;;;;;;6.80;6.13;;;;;;;;;;5006548;28;20451;-86
2022/05/25 03:49:26;;;;;;;5.87;5.20;;;;;;;;;;5004631;28;20416;-86
2022/05/25 03:51:52;;;;;;;6.93;6.20;;;;;;;;;;5004891;28;20439;-86
2022/05/25 03:54:18;;;;;;;7.30;6.60;;;;;;;;;;4989841;28;20428;-86
2022/05/25 03:56:44;;;;;;;7.00;6.30;;;;;;;;;;4993114;28;20463;-86
2022/05/25 03:59:10;;;;;;;7.20;6.40;;;;;;;;;;4991710;28;20409;-86
2022/05/25 04:01:37;;;;;;;8.23;6.90;;;;;;;;;;4987935;28;20430;-86
2022/05/25 04:04:03;;;;;;;8.27;7.20;;;;;;;;;;4988043;28;20447;-86
2022/05/25 04:06:30;;;;;;;9.33;6.87;;;;;;;;;;4987809;28;20416;-86
2022/05/25 04:08:56;;;;;;;9.10;7.33;;;;;;;;;;5005467;28;20411;-85
2022/05/25 04:11:22;;;;;;;19.57;7.87;;;;;;;;;;5006221;28;20773;-86
2022/05/25 04:13:49;;;;;;;13.03;7.17;;;;;;;;;;5008627;28;20405;-86
2022/05/25 04:16:15;;;;;;;10.43;8.50;;;;;;;;;;5022422;28;20523;-86
2022/05/25 04:18:41;;;;;;;8.60;6.97;;;;;;;;;;5027515;28;20407;-86
2022/05/25 04:21:07;;;;;;;7.80;7.00;;;;;;;;;;5010862;28;20414;-86
2022/05/25 04:23:33;;;;;;;9.80;7.87;;;;;;;;;;5028184;28;20435;-84
2022/05/25 04:26:01;;;;;;;15.53;9.03;;;;;;;;;;4995416;28;20420;-85
2022/05/25 04:28:27;;;;;;;11.30;7.93;;;;;;;;;;4989196;28;20421;-85
2022/05/25 04:30:53;;;;;;;9.73;8.40;;;;;;;;;;5006186;28;20479;-85
2022/05/25 04:33:20;;;;;;;9.00;7.27;;;;;;;;;;5006219;28;20444;-84
2022/05/25 04:35:46;;;;;;;12.57;8.70;;;;;;;;;;5006138;28;20475;-85
2022/05/25 04:38:15;;;;;;;9.30;8.40;;;;;;;;;;5005669;28;20903;-85
2022/05/25 04:40:42;;;;;;;9.80;8.80;;;;;;;;;;5005716;28;20469;-86
2022/05/25 04:43:12;;;;;;;10.60;8.73;;;;;;;;;;5005108;28;20458;-85
2022/05/25 04:45:39;;;;;;;9.63;8.73;;;;;;;;;;4987653;28;20432;-85
2022/05/25 04:48:05;;;;;;;11.77;10.57;;;;;;;;;;5003560;28;20431;-85
2022/05/25 04:50:33;;;;;;;12.67;10.20;;;;;;;;;;5004185;28;20450;-85
2022/05/25 04:53:00;;;;;;;13.90;10.47;;;;;;;;;;5004782;28;20427;-85
2022/05/25 04:58:38;;;;;;;16.07;11.40;;;;;;;;;;5024870;28;20399;-87
2022/05/25 05:01:05;;;;;;;14.23;12.13;;;;;;;;;;5004666;28;20407;-86
2022/05/25 05:03:31;;;;;;;13.87;11.57;;;;;;;;;;5024114;28;20430;-86
2022/05/25 05:06:07;;;;;;;19.40;13.73;;;;;;;;;;5023537;28;20399;-86
2022/05/25 05:08:41;;;;;;;15.47;12.47;;;;;;;;;;5006627;28;20407;-86
2022/05/25 05:11:09;;;;;;;17.07;12.83;;;;;;;;;;5024105;28;20388;-86
2022/05/25 05:13:35;;;;;;;16.53;13.53;;;;;;;;;;5006517;28;20977;-87
2022/05/25 05:16:04;;;;;;;15.20;12.63;;;;;;;;;;5024598;28;20458;-87
2022/05/25 05:18:30;;;;;;;19.43;14.13;;;;;;;;;;5024530;28;20503;-87
2022/05/25 05:20:56;;;;;;;15.77;13.80;;;;;;;;;;5024739;28;20466;-86
2022/05/25 05:23:22;;;;;;;19.63;13.70;;;;;;;;;;5005708;28;20535;-87
2022/05/25 05:25:48;;;;;;;15.90;12.80;;;;;;;;;;4990040;28;20450;-86
2022/05/25 05:28:19;;;;;;;15.63;14.00;;;;;;;;;;5014221;28;20416;-86
2022/05/25 05:30:55;;;;;;;19.07;14.60;;;;;;;;;;5011976;28;20449;-87
2022/05/25 05:33:22;;;;;;;19.27;14.73;;;;;;;;;;5011986;28;20463;-86
2022/05/25 05:35:50;;;;;;;20.13;15.80;;;;;;;;;;5008103;28;20481;-87
2022/05/25 05:38:17;;;;;;;15.50;13.90;;;;;;;;;;4988908;28;20909;-87
2022/05/25 05:40:49;;;;;;;20.80;16.43;;;;;;;;;;5005724;28;20396;-87
2022/05/25 05:43:15;;;;;;;22.10;17.10;;;;;;;;;;5006866;28;20447;-87
2022/05/25 05:45:50;;;;;;;20.93;15.63;;;;;;;;;;5006504;28;20412;-87
2022/05/25 05:48:21;;;;;;;22.20;14.33;;;;;;;;;;5004834;28;20908;-87
2022/05/25 05:50:48;;;;;;;24.23;16.57;;;;;;;;;;5005735;28;20404;-86
2022/05/25 05:53:15;;;;;;;18.20;15.00;;;;;;;;;;5006526;28;20459;-88
2022/05/25 05:55:42;;;;;;;21.40;16.60;;;;;;;;;;4985030;28;20979;-88
2022/05/25 05:58:08;;;;;;;19.03;16.23;;;;;;;;;;5002513;28;20915;-87
2022/05/25 06:00:34;;;;;;;23.20;18.33;;;;;;;;;;5002111;28;20770;-87
2022/05/25 06:03:01;;;;;;;23.00;17.93;;;;;;;;;;4997638;28;20501;-86
2022/05/25 06:05:28;;;;;;;13.37;11.50;;;;;;;;;;4995725;28;20408;-87
2022/05/25 06:07:54;;;;;;;18.20;10.97;;;;;;;;;;4978488;28;20419;-87
2022/05/25 06:10:20;;;;;;;22.23;13.90;;;;;;;;;;4997604;28;20420;-87
2022/05/25 06:12:47;;;;;;;21.20;15.10;;;;;;;;;;4997883;28;20452;-86
2022/05/25 06:20:47;;;;;;;26.67;19.20;;;;;;;;;;5002132;28;20459;-86
2022/05/25 06:23:13;;;;;;;30.27;19.50;;;;;;;;;;5000406;28;20428;-87
2022/05/25 06:25:39;;;;;;;30.70;20.63;;;;;;;;;;5001346;28;20494;-87
2022/05/25 06:28:05;;;;;;;26.33;18.47;;;;;;;;;;5001570;28;20412;-86
2022/05/25 06:30:32;;;;;;;29.77;19.87;;;;;;;;;;4983130;28;20424;-87
2022/05/25 06:32:58;;;;;;;31.13;20.00;;;;;;;;;;5001149;28;20515;-86
2022/05/25 06:35:24;;;;;;;30.47;20.33;;;;;;;;;;5000226;28;20864;-86
2022/05/25 06:37:50;;;;;;;34.90;21.60;;;;;;;;;;5001033;28;20462;-87
2022/05/25 06:40:16;;;;;;;31.93;19.80;;;;;;;;;;5000655;28;20959;-87
2022/05/25 06:42:42;;;;;;;27.37;19.70;;;;;;;;;;5000755;28;20428;-86
2022/05/25 06:45:11;;;;;;;22.53;16.90;;;;;;;;;;4983364;28;20490;-87
2022/05/25 06:47:37;;;;;;;27.40;18.97;;;;;;;;;;5000936;28;20499;-87
2022/05/25 06:50:04;;;;;;;32.03;19.17;;;;;;;;;;4982796;28;20420;-87
2022/05/25 06:52:30;;;;;;;25.57;18.40;;;;;;;;;;4983105;28;20505;-86
2022/05/25 06:54:57;;;;;;;24.40;17.40;;;;;;;;;;5002951;28;20471;-87
2022/05/25 06:57:25;;;;;;;19.97;16.50;;;;;;;;;;5004543;28;20483;-86
2022/05/25 06:59:51;;;;;;;14.20;12.33;;;;;;;;;;5004039;28;20412;-86
2022/05/25 07:02:17;;;;;;;11.67;10.47;;;;;;;;;;5008535;28;20431;-87
2022/05/25 07:04:43;;;;;;;8.13;7.23;;;;;;;;;;5023633;28;20403;-87
2022/05/25 07:07:09;;;;;;;7.43;6.70;;;;;;;;;;5005267;28;20419;-86
2022/05/25 07:09:39;;;;;;;10.97;7.53;;;;;;;;;;5016993;28;20423;-86
2022/05/25 07:12:06;;;;;;;10.00;8.23;;;;;;;;;;5027820;28;20451;-87
2022/05/25 07:14:32;;;;;;;9.07;6.90;;;;;;;;;;5035305;28;20445;-85
2022/05/25 07:17:02;;;;;;;4.90;4.40;;;;;;;;;;5039939;28;20459;-84
2022/05/25 07:19:28;;;;;;;4.07;3.67;;;;;;;;;;5036822;28;20423;-86
2022/05/25 07:21:54;;;;;;;3.60;3.17;;;;;;;;;;5024748;28;20427;-86
2022/05/25 07:24:21;;;;;;;4.93;2.70;;;;;;;;;;5010550;28;20419;-85
2022/05/25 07:26:47;;;;;;;4.20;2.67;;;;;;;;;;5023656;28;20523;-85
2022/05/25 07:29:14;;;;;;;2.30;2.00;;;;;;;;;;5009274;28;20439;-86
2022/05/25 07:31:40;;;;;;;2.80;2.07;;;;;;;;;;5000761;28;20440;-86
2022/05/25 07:34:09;;;;;;;5.00;2.50;;;;;;;;;;5003941;28;20408;-85
2022/05/25 07:36:36;;;;;;;2.53;1.90;;;;;;;;;;5005855;28;20456;-86
2022/05/25 07:39:04;;;;;;;3.20;2.30;;;;;;;;;;5007224;28;20413;-87
2022/05/25 07:41:30;;;;;;;2.40;1.90;;;;;;;;;;5006983;28;20420;-85
2022/05/25 07:43:57;;;;;;;4.23;2.40;;;;;;;;;;5007235;28;20500;-87
2022/05/25 07:46:27;;;;;;;3.63;2.30;;;;;;;;;;5006346;28;20440;-87
2022/05/25 07:48:53;;;;;;;4.93;2.50;;;;;;;;;;5016600;28;20757;-84
2022/05/25 07:51:19;;;;;;;3.30;3.00;;;;;;;;;;5025388;28;20799;-87
2022/05/25 07:53:57;;;;;;;4.40;3.40;;;;;;;;;;5037758;28;20923;-87
2022/05/25 07:56:35;;;;;;;3.10;2.80;;;;;;;;;;5036205;28;20442;-89
2022/05/25 07:59:01;;;;;;;2.80;2.50;;;;;;;;;;5028992;28;20888;-88
2022/05/25 08:07:00;;;;;;;10.23;3.57;;;;;;;;;;5020940;28;20437;-83
2022/05/25 08:09:27;;;;;;;4.20;2.37;;;;;;;;;;5011525;28;20466;-83
2022/05/25 08:11:54;;;;;;;3.73;2.03;;;;;;;;;;5015391;28;20470;-83
2022/05/25 08:14:21;;;;;;;2.77;2.50;;;;;;;;;;5027396;28;20888;-82
2022/05/25 08:16:47;;;;;;;3.10;2.13;;;;;;;;;;5019607;28;20474;-82
2022/05/25 08:19:14;;;;;;;5.33;2.60;;;;;;;;;;5021139;28;20413;-82
2022/05/25 08:21:40;;;;;;;10.00;2.70;;;;;;;;;;5016983;28;20431;-82
2022/05/25 08:24:06;;;;;;;5.67;2.70;;;;;;;;;;5007200;28;20423;-83
2022/05/25 08:26:32;;;;;;;5.80;3.37;;;;;;;;;;5031449;28;20406;-82
2022/05/25 08:28:58;;;;;;;6.67;4.17;;;;;;;;;;5021881;28;20461;-83
2022/05/25 08:31:24;;;;;;;4.07;3.03;;;;;;;;;;5007197;28;20903;-84
2022/05/25 08:33:50;;;;;;;2.60;2.13;;;;;;;;;;5025714;28;20422;-82
2022/05/25 08:36:16;;;;;;;3.47;2.37;;;;;;;;;;5011305;28;20530;-83
2022/05/25 08:38:43;;;;;;;4.50;2.80;;;;;;;;;;5032299;28;20407;-83
2022/05/25 08:41:09;;;;;;;3.30;2.17;;;;;;;;;;5021943;28;20408;-84
2022/05/25 08:43:43;;;;;;;2.20;1.97;;;;;;;;;;5022284;28;20945;-84
2022/05/25 08:46:14;;;;;;;3.17;2.10;;;;;;;;;;5029487;28;20403;-82
2022/05/25 08:48:41;;;;;;;2.10;1.80;;;;;;;;;;5034475;28;20403;-84
2022/05/25 08:51:09;;;;;;;3.53;2.30;;;;;;;;;;5025547;28;20536;-85
2022/05/25 08:53:37;;;;;;;4.60;2.07;;;;;;;;;;5022944;28;20413;-85
2022/05/25 08:56:21;;;;;;;3.73;2.83;;;;;;;;;;5014491;28;20470;-85
2022/05/25 08:58:49;;;;;;;2.47;2.00;;;;;;;;;;5031310;28;20461;-83
2022/05/25 09:01:25;;;;;;;2.80;1.90;;;;;;;;;;5028230;28;20469;-87
2022/05/25 09:04:15;;;;;;;2.90;2.60;;;;;;;;;;5017532;28;20398;-87
2022/05/25 09:06:52;;;;;;;3.27;2.00;;;;;;;;;;4977742;28;20432;-87
2022/05/25 09:09:26;;;;;;;2.20;1.30;;;;;;;;;;5023090;28;20494;-87
2022/05/25 09:11:58;;;;;;;3.40;1.97;;;;;;;;;;5002351;28;20554;-86
2022/05/25 09:14:24;;;;;;;3.60;2.07;;;;;;;;;;5000277;28;20412;-85
2022/05/25 09:16:51;;;;;;;2.50;1.77;;;;;;;;;;5005000;28;20557;-85
2022/05/25 09:19:22;;;;;;;4.70;1.57;;;;;;;;;;5029197;28;20497;-84
2022/05/25 09:21:54;;;;;;;3.30;1.73;;;;;;;;;;5026756;28;20438;-86
2022/05/25 09:24:22;;;;;;;2.43;1.67;;;;;;;;;;5024669;28;20398;-86
2022/05/25 09:26:49;;;;;;;2.53;1.93;;;;;;;;;;5035208;28;20415;-85
2022/05/25 09:29:15;;;;;;;3.70;1.60;;;;;;;;;;5021283;28;20419;-85
2022/05/25 09:31:47;;;;;;;2.33;1.50;;;;;;;;;;5033682;28;20451;-85
2022/05/25 09:34:32;;;;;;;2.90;1.37;;;;;;;;;;5048954;28;20460;-84
2022/05/25 09:37:16;;;;;;;2.03;1.40;;;;;;;;;;5029845;28;20478;-84
2022/05/25 09:39:45;;;;;;;2.60;1.70;;;;;;;;;;5035729;28;20407;-84
2022/05/25 09:42:17;;;;;;;2.47;1.63;;;;;;;;;;5023819;28;20423;-84
2022/05/25 09:44:47;;;;;;;1.90;1.30;;;;;;;;;;5022104;28;20406;-85
2022/05/25 09:47:23;;;;;;;2.27;1.40;;;;;;;;;;5029355;28;20404;-84
2022/05/25 09:49:52;;;;;;;3.30;1.27;;;;;;;;;;5036667;28;20410;-84
2022/05/25 09:52:30;;;;;;;1.60;1.10;;;;;;;;;;4992303;28;20492;-84
2022/05/25 09:55:09;;;;;;;4.73;1.50;;;;;;;;;;5031726;28;20403;-85
2022/05/25 09:57:37;;;;;;;3.60;1.30;;;;;;;;;;5023310;28;20446;-85
2022/05/25 10:00:07;;;;;;;1.80;1.40;;;;;;;;;;5024446;28;20475;-84
2022/05/25 10:02:52;;;;;;;4.80;1.60;;;;;;;;;;5025752;28;20446;-84
2022/05/25 10:05:27;;;;;;;2.07;1.30;;;;;;;;;;5014041;28;20403;-85
2022/05/25 10:07:55;;;;;;;2.67;1.77;;;;;;;;;;5036138;28;20475;-86
2022/05/25 10:10:44;;;;;;;1.63;1.30;;;;;;;;;;5023095;28;20407;-84
2022/05/25 10:13:19;;;;;;;2.40;1.27;;;;;;;;;;5010113;28;20458;-84
2022/05/25 10:15:51;;;;;;;3.07;1.30;;;;;;;;;;5020227;28;20462;-86
2022/05/25 10:18:31;;;;;;;1.63;0.97;;;;;;;;;;5020306;28;20403;-83
2022/05/25 10:20:58;;;;;;;4.03;1.60;;;;;;;;;;4998812;28;20513;-84
2022/05/25 10:23:25;;;;;;;1.87;1.23;;;;;;;;;;4999849;28;20444;-86
2022/05/25 10:25:51;;;;;;;7.03;1.37;;;;;;;;;;5019442;28;20443;-84
2022/05/25 10:28:27;;;;;;;3.07;1.83;;;;;;;;;;5028386;28;20419;-84
2022/05/25 10:36:56;;;;;;;2.97;1.47;;;;;;;;;;5022819;28;20531;-85
2022/05/25 10:39:28;;;;;;;1.87;1.23;;;;;;;;;;5007579;28;20509;-86
2022/05/25 10:42:00;;;;;;;1.80;1.10;;;;;;;;;;4993477;28;20442;-84
2022/05/25 10:44:30;;;;;;;2.00;1.10;;;;;;;;;;5009591;28;20419;-85
2022/05/25 10:47:00;;;;;;;2.20;1.40;;;;;;;;;;5022846;28;20438;-84
2022/05/25 10:49:35;;;;;;;2.47;1.13;;;;;;;;;;5021183;28;20904;-83
2022/05/25 10:52:04;;;;;;;2.87;1.30;;;;;;;;;;5009933;28;20813;-84
2022/05/25 10:54:54;;;;;;;2.13;1.20;;;;;;;;;;5030524;28;20415;-84
2022/05/25 10:57:21;;;;;;;2.73;1.50;;;;;;;;;;5017925;28;20446;-84
2022/05/25 11:00:10;;;;;;;2.53;1.60;;;;;;;;;;5024567;28;20427;-86
2022/05/25 11:02:54;;;;;;;3.43;1.20;;;;;;;;;;4980176;28;20431;-87
2022/05/25 11:05:40;;;;;;;3.17;2.13;;;;;;;;;;5001524;28;20846;-87
2022/05/25 11:08:25;;;;;;;2.27;1.20;;;;;;;;;;5015940;28;20443;-88
2022/05/25 11:10:56;;;;;;;1.80;1.20;;;;;;;;;;5015639;28;20411;-84
2022/05/25 11:13:22;;;;;;;2.37;1.43;;;;;;;;;;5005857;28;20442;-86
2022/05/25 11:16:04;;;;;;;3.00;1.30;;;;;;;;;;5017854;28;20486;-86
2022/05/25 11:18:43;;;;;;;2.80;1.20;;;;;;;;;;5022814;28;20502;-87
2022/05/25 11:21:16;;;;;;;2.53;1.17;;;;;;;;;;4996640;28;20475;-86
2022/05/25 11:23:48;;;;;;;2.70;0.97;;;;;;;;;;5024879;28;20780;-86
2022/05/25 11:26:17;;;;;;;2.20;1.13;;;;;;;;;;5023437;28;20399;-88
2022/05/25 11:28:58;;;;;;;2.30;1.30;;;;;;;;;;5023171;28;20871;-88
2022/05/25 11:31:43;;;;;;;2.63;1.13;;;;;;;;;;5018865;28;20799;-87
2022/05/25 11:34:28;;;;;;;3.20;1.10;;;;;;;;;;5022906;28;20415;-86
2022/05/25 11:36:54;;;;;;;2.80;1.57;;;;;;;;;;5020420;28;20891;-86
2022/05/25 11:39:33;;;;;;;3.10;1.30;;;;;;;;;;5004169;28;20434;-86
2022/05/25 11:42:03;;;;;;;2.10;1.20;;;;;;;;;;5003802;28;20420;-86
2022/05/25 11:44:50;;;;;;;3.77;1.47;;;;;;;;;;5025229;28;20412;-87
2022/05/25 11:47:16;;;;;;;2.70;1.67;;;;;;;;;;5025848;28;20396;-88
2022/05/25 11:49:57;;;;;;;2.73;1.40;;;;;;;;;;5001436;28;20794;-88
2022/05/25 11:52:32;;;;;;;1.70;1.00;;;;;;;;;;5020631;28;21030;-87
2022/05/25 11:54:58;;;;;;;3.70;1.40;;;;;;;;;;5024458;28;20429;-88
2022/05/25 11:57:41;;;;;;;2.13;1.10;;;;;;;;;;5025517;28;20447;-87
2022/05/25 12:00:14;;;;;;;2.10;1.20;;;;;;;;;;4996978;28;20424;-87
2022/05/25 12:02:46;;;;;;;1.70;1.00;;;;;;;;;;5003831;28;20471;-88
2022/05/25 12:05:38;;;;;;;2.20;1.30;;;;;;;;;;5013388;28;20787;-87
2022/05/25 12:08:17;;;;;;;1.73;1.00;;;;;;;;;;4981947;28;20438;-85
2022/05/25 12:10:48;;;;;;;3.97;1.30;;;;;;;;;;5003548;28;20442;-86
2022/05/25 12:13:21;;;;;;;4.73;1.70;;;;;;;;;;5023643;28;20482;-86
2022/05/25 12:16:00;;;;;;;1.70;1.10;;;;;;;;;;5004946;28;20455;-87
2022/05/25 12:18:32;;;;;;;2.60;1.20;;;;;;;;;;5015951;28;20886;-86
2022/05/25 12:21:01;;;;;;;2.63;1.80;;;;;;;;;;5020827;28;20447;-84
2022/05/25 12:23:36;;;;;;;5.63;1.33;;;;;;;;;;5020960;28;20442;-85
2022/05/25 12:26:23;;;;;;;3.43;3.03;;;;;;;;;;5021435;28;21063;-85
2022/05/25 12:28:50;;;;;;;3.13;1.00;;;;;;;;;;5019292;28;20432;-85
2022/05/25 12:31:18;;;;;;;2.40;1.17;;;;;;;;;;5002849;28;20410;-84
2022/05/25 12:33:45;;;;;;;2.40;1.17;;;;;;;;;;5016781;28;20431;-85
2022/05/25 12:36:11;;;;;;;1.90;1.10;;;;;;;;;;5019373;28;20477;-85
2022/05/25 12:38:39;;;;;;;2.10;1.27;;;;;;;;;;5016093;28;20427;-84
2022/05/25 12:41:25;;;;;;;2.00;1.07;;;;;;;;;;4994391;28;20419;-84
2022/05/25 12:43:52;;;;;;;2.60;1.10;;;;;;;;;;5017470;28;20491;-86
2022/05/25 12:49:39;;;;;;;1.80;1.30;;;;;;;;;;4899526;29;20949;-85
2022/05/25 12:52:25;;;;;;;2.50;1.20;;;;;;;;;;5014801;28;20516;-86
2022/05/25 12:57:43;;;;;;;2.43;1.43;;;;;;;;;;5012042;28;20574;-84
2022/05/25 13:00:19;;;;;;;2.07;1.17;;;;;;;;;;5023910;28;20483;-85
2022/05/25 13:02:46;;;;;;;2.33;1.23;;;;;;;;;;5025639;28;20383;-85
2022/05/25 13:05:32;;;;;;;2.13;1.20;;;;;;;;;;5023916;28;20414;-85
2022/05/25 13:07:58;;;;;;;3.07;2.00;;;;;;;;;;5024449;28;20930;-85
2022/05/25 13:10:32;;;;;;;5.73;1.80;;;;;;;;;;5005084;28;20899;-83
2022/05/25 13:13:19;;;;;;;1.70;1.10;;;;;;;;;;5005353;28;20400;-86
2022/05/25 13:15:46;;;;;;;3.30;1.17;;;;;;;;;;4988424;28;20456;-86
2022/05/25 13:18:47;;;;;;;1.97;1.33;;;;;;;;;;5010862;28;20834;-85
2022/05/25 13:21:35;;;;;;;3.37;1.40;;;;;;;;;;4929781;29;20849;-83
2022/05/25 13:24:21;;;;;;;1.70;1.20;;;;;;;;;;5019893;28;20414;-84
2022/05/25 13:26:47;;;;;;;3.43;1.20;;;;;;;;;;4994007;28;20432;-84
2022/05/25 13:29:40;;;;;;;2.53;1.10;;;;;;;;;;5005641;28;20458;-84
2022/05/25 13:32:29;;;;;;;1.80;1.17;;;;;;;;;;4994322;28;20427;-84
2022/05/25 13:34:55;;;;;;;2.57;1.40;;;;;;;;;;4971487;28;20412;-84
2022/05/25 13:37:21;;;;;;;2.47;1.43;;;;;;;;;;5024981;28;20447;-85
2022/05/25 13:39:47;;;;;;;5.10;1.33;;;;;;;;;;5005750;28;20423;-84
2022/05/25 13:42:18;;;;;;;2.27;1.10;;;;;;;;;;5004557;28;20503;-84
2022/05/25 13:44:49;;;;;;;3.87;1.30;;;;;;;;;;5004201;28;20439;-84
2022/05/25 13:47:22;;;;;;;2.17;1.27;;;;;;;;;;5007393;28;20420;-84
2022/05/25 13:49:49;;;;;;;4.03;1.10;;;;;;;;;;5004232;28;20423;-84
2022/05/25 13:52:15;;;;;;;2.33;1.40;;;;;;;;;;5006502;28;20469;-84
2022/05/25 13:54:42;;;;;;;3.30;1.90;;;;;;;;;;5004796;28;20416;-84
2022/05/25 13:57:35;;;;;;;2.10;1.30;;;;;;;;;;5004859;28;20883;-85
2022/05/25 14:00:12;;;;;;;2.20;1.40;;;;;;;;;;5021856;28;20422;-84
2022/05/25 14:02:43;;;;;;;11.47;2.77;;;;;;;;;;5026085;28;20380;-84
2022/05/25 14:05:09;;;;;;;2.17;1.30;;;;;;;;;;5024025;28;20434;-83
2022/05/25 14:07:41;;;;;;;2.83;1.30;;;;;;;;;;5016644;28;20426;-84
2022/05/25 14:12:55;;;;;;;3.63;1.30;;;;;;;;;;5024602;28;20386;-84
2022/05/25 14:15:24;;;;;;;3.00;1.00;;;;;;;;;;5005375;28;20898;-83
2022/05/25 14:17:56;;;;;;;3.20;1.10;;;;;;;;;;5020698;28;20526;-84
2022/05/25 14:20:23;;;;;;;1.70;1.00;;;;;;;;;;5016061;28;20400;-83
2022/05/25 14:22:49;;;;;;;3.53;1.80;;;;;;;;;;4998108;28;20407;-83
2022/05/25 14:25:19;;;;;;;1.80;1.20;;;;;;;;;;5018303;28;20415;-84
2022/05/25 14:27:47;;;;;;;2.07;1.30;;;;;;;;;;5008210;28;20420;-84
2022/05/25 14:30:27;;;;;;;3.00;1.43;;;;;;;;;;5006888;28;20407;-84
2022/05/25 14:33:11;;;;;;;4.20;1.27;;;;;;;;;;5008078;28;20410;-84
2022/05/25 14:35:39;;;;;;;1.90;1.20;;;;;;;;;;5027422;28;20888;-85
2022/05/25 14:38:12;;;;;;;2.07;1.20;;;;;;;;;;5024907;28;20415;-85
2022/05/25 14:40:49;;;;;;;2.33;1.10;;;;;;;;;;5021977;28;20398;-84
2022/05/25 14:43:33;;;;;;;2.23;1.10;;;;;;;;;;5031712;28;20410;-85
2022/05/25 14:46:25;;;;;;;2.50;1.27;;;;;;;;;;5032487;28;20427;-85
2022/05/25 14:48:56;;;;;;;3.27;1.10;;;;;;;;;;5010286;28;20785;-85
2022/05/25 14:51:25;;;;;;;1.80;0.90;;;;;;;;;;5037094;28;20407;-85
2022/05/25 14:53:53;;;;;;;2.57;1.10;;;;;;;;;;5037352;28;20438;-85
2022/05/25 14:56:27;;;;;;;3.83;1.17;;;;;;;;;;5025112;28;20560;-84
2022/05/25 14:58:55;;;;;;;4.67;0.97;;;;;;;;;;5004842;28;20439;-85
2022/05/25 15:01:25;;;;;;;2.20;1.03;;;;;;;;;;5004737;28;20448;-84
2022/05/25 15:04:00;;;;;;;2.40;1.00;;;;;;;;;;5006687;28;20416;-84
2022/05/25 15:06:30;;;;;;;1.57;0.80;;;;;;;;;;4994504;28;20867;-84
2022/05/25 15:08:59;;;;;;;2.30;1.00;;;;;;;;;;5007944;28;20562;-84
2022/05/25 15:11:25;;;;;;;3.20;1.37;;;;;;;;;;5008353;28;20407;-85
2022/05/25 15:19:42;;;;;;;1.83;1.07;;;;;;;;;;5032491;28;20952;-84
2022/05/25 15:22:15;;;;;;;1.80;0.90;;;;;;;;;;5000241;28;20840;-83
2022/05/25 15:24:41;;;;;;;1.63;0.97;;;;;;;;;;5020254;28;20939;-83
2022/05/25 15:27:09;;;;;;;3.13;1.53;;;;;;;;;;5018332;28;20851;-82
2022/05/25 15:29:48;;;;;;;2.00;1.20;;;;;;;;;;5008349;28;20434;-83
2022/05/25 15:32:14;;;;;;;1.70;0.90;;;;;;;;;;5005804;28;20411;-83
2022/05/25 15:34:40;;;;;;;2.80;1.20;;;;;;;;;;5002841;28;20502;-82
2022/05/25 15:37:27;;;;;;;3.17;1.23;;;;;;;;;;5021559;28;20494;-83